Time;durP1;ratioP1;P1;durP2;ratioP2;P2;SDS_P1;SDS_P2;PMS_P1;PMS_P2;Temp;Humidity;BMP_temperature;BMP_pressure;BME280_temperature;BME280_humidity;BME280_pressure;Samples;Min_cycle;Max_cycle;Signal;HPM_P1;HPM_P2
2023/05/12 00:01:45;;;;;;;8.50;7.70;;;10.70;99.90;;;;;;5008958;28;20816;-67
2023/05/12 00:04:13;;;;;;;7.60;6.90;;;10.60;99.90;;;;;;5007459;28;20922;-67
2023/05/12 00:06:41;;;;;;;7.13;6.53;;;10.70;99.90;;;;;;5008280;28;20560;-67
2023/05/12 00:09:09;;;;;;;10.27;8.53;;;10.60;99.90;;;;;;5008969;28;20444;-67
2023/05/12 00:11:37;;;;;;;9.50;8.60;;;10.70;99.90;;;;;;5008372;28;20968;-68
2023/05/12 00:14:06;;;;;;;10.27;9.33;;;10.70;99.90;;;;;;5007553;28;20451;-67
2023/05/12 00:16:34;;;;;;;9.67;8.30;;;10.60;99.90;;;;;;5008343;28;20467;-67
2023/05/12 00:19:03;;;;;;;9.67;8.77;;;10.50;99.90;;;;;;5008269;28;20517;-67
2023/05/12 00:21:31;;;;;;;8.77;7.87;;;10.50;99.90;;;;;;5008479;28;20479;-67
2023/05/12 00:23:59;;;;;;;11.47;10.43;;;10.40;99.90;;;;;;5006906;28;20439;-68
2023/05/12 00:26:27;;;;;;;11.70;10.60;;;10.30;99.90;;;;;;5008397;28;20991;-67
2023/05/12 00:28:55;;;;;;;10.57;9.30;;;10.20;99.90;;;;;;5008248;28;20478;-67
2023/05/12 00:31:23;;;;;;;10.53;9.63;;;10.20;99.90;;;;;;5007969;28;20442;-67
2023/05/12 00:33:51;;;;;;;10.90;9.90;;;10.10;99.90;;;;;;5007030;28;20490;-68
2023/05/12 00:36:20;;;;;;;12.07;10.87;;;10.00;99.90;;;;;;5007918;28;20482;-67
2023/05/12 00:38:48;;;;;;;11.70;10.63;;;9.90;99.90;;;;;;5007715;28;20874;-68
2023/05/12 00:41:16;;;;;;;12.17;10.90;;;10.00;99.90;;;;;;5008562;28;20482;-67
2023/05/12 00:43:44;;;;;;;12.20;10.90;;;10.10;99.90;;;;;;5007042;28;20450;-67
2023/05/12 00:46:12;;;;;;;12.40;11.20;;;10.00;99.90;;;;;;5007919;28;20518;-67
2023/05/12 00:48:40;;;;;;;12.27;10.73;;;10.00;99.90;;;;;;5008010;28;20474;-66
2023/05/12 00:51:09;;;;;;;12.13;10.97;;;10.10;99.90;;;;;;5008244;28;20442;-67
2023/05/12 00:53:38;;;;;;;13.50;12.10;;;10.10;99.90;;;;;;5006528;28;20458;-67
2023/05/12 00:56:18;;;;;;;13.07;11.70;;;10.00;99.90;;;;;;5007133;28;20467;-67
2023/05/12 00:58:46;;;;;;;13.10;11.80;;;10.10;99.90;;;;;;5007796;28;20433;-67
2023/05/12 01:01:14;;;;;;;11.93;10.83;;;10.20;99.90;;;;;;5007864;28;20446;-67
2023/05/12 01:03:42;;;;;;;11.70;10.70;;;10.30;99.90;;;;;;5006908;28;20447;-67
2023/05/12 01:06:13;;;;;;;10.53;9.43;;;10.30;99.90;;;;;;5008031;28;20516;-67
2023/05/12 01:08:43;;;;;;;10.53;9.63;;;10.30;99.90;;;;;;5008549;28;20495;-66
2023/05/12 01:11:11;;;;;;;10.37;9.47;;;10.30;99.90;;;;;;5008260;28;20444;-67
2023/05/12 01:13:40;;;;;;;11.10;10.03;;;10.40;99.90;;;;;;5006684;28;20443;-66
2023/05/12 01:16:12;;;;;;;9.83;8.93;;;10.40;99.90;;;;;;5008052;28;20542;-67
2023/05/12 01:18:48;;;;;;;10.77;9.77;;;10.40;99.90;;;;;;5007839;28;20442;-66
2023/05/12 01:21:17;;;;;;;11.50;10.30;;;10.40;99.90;;;;;;5011380;28;20460;-67
2023/05/12 01:23:51;;;;;;;11.97;10.77;;;10.40;99.90;;;;;;5010074;28;20512;-68
2023/05/12 01:26:21;;;;;;;12.53;11.30;;;10.40;99.90;;;;;;5008099;28;20457;-68
2023/05/12 01:28:50;;;;;;;11.00;9.90;;;10.50;99.90;;;;;;5008553;28;20620;-68
2023/05/12 01:31:18;;;;;;;12.73;11.03;;;10.50;99.90;;;;;;5007171;28;20442;-68
2023/05/12 01:33:48;;;;;;;12.63;11.43;;;10.70;99.90;;;;;;5006901;28;20437;-69
2023/05/12 01:36:15;;;;;;;12.00;10.77;;;10.80;99.90;;;;;;5007523;28;20496;-68
2023/05/12 01:38:43;;;;;;;12.60;11.37;;;10.80;99.90;;;;;;5008048;28;20444;-68
2023/05/12 01:41:11;;;;;;;18.63;14.10;;;10.70;99.90;;;;;;5007753;28;21181;-68
2023/05/12 01:43:40;;;;;;;14.73;12.63;;;10.70;99.90;;;;;;5006226;28;20455;-68
2023/05/12 01:46:09;;;;;;;14.97;13.40;;;10.60;99.90;;;;;;5007313;28;20492;-68
2023/05/12 01:48:37;;;;;;;19.63;14.17;;;10.50;99.90;;;;;;5006890;28;20481;-68
2023/05/12 01:51:07;;;;;;;23.30;14.23;;;10.50;99.90;;;;;;5007507;28;20454;-67
2023/05/12 01:53:35;;;;;;;23.13;15.20;;;10.40;99.90;;;;;;5006812;28;20453;-67
2023/05/12 01:56:03;;;;;;;20.37;14.90;;;10.40;99.90;;;;;;5007441;28;20499;-68
2023/05/12 01:58:31;;;;;;;19.90;15.90;;;10.40;99.90;;;;;;5007441;28;20434;-68
2023/05/12 02:01:00;;;;;;;16.10;13.83;;;10.30;99.90;;;;;;5006268;28;20640;-68
2023/05/12 02:03:28;;;;;;;17.47;15.27;;;10.30;99.90;;;;;;5004704;28;20441;-67
2023/05/12 02:05:56;;;;;;;17.07;14.10;;;10.30;99.90;;;;;;5007177;28;20468;-68
2023/05/12 02:08:24;;;;;;;15.07;13.17;;;10.30;99.90;;;;;;5007077;28;20513;-68
2023/05/12 02:11:04;;;;;;;15.70;13.73;;;10.30;99.90;;;;;;5007361;28;20446;-68
2023/05/12 02:13:32;;;;;;;18.03;12.67;;;10.30;99.90;;;;;;5005595;28;20544;-67
2023/05/12 02:16:04;;;;;;;13.20;11.93;;;10.40;99.90;;;;;;5006932;28;20469;-68
2023/05/12 02:18:32;;;;;;;23.47;12.70;;;10.30;99.90;;;;;;5006846;28;20445;-68
2023/05/12 02:21:00;;;;;;;16.90;13.80;;;10.30;99.90;;;;;;5006561;28;20498;-68
2023/05/12 02:23:28;;;;;;;21.30;13.70;;;10.30;99.90;;;;;;5005538;28;21152;-67
2023/05/12 02:25:56;;;;;;;13.73;12.33;;;10.30;99.90;;;;;;5006133;28;21010;-68
2023/05/12 02:28:24;;;;;;;14.50;13.07;;;10.30;99.90;;;;;;5005974;28;20504;-67
2023/05/12 02:30:53;;;;;;;15.20;13.40;;;10.30;99.90;;;;;;5006301;28;20450;-68
2023/05/12 02:33:23;;;;;;;21.27;15.00;;;10.50;99.90;;;;;;5005134;28;20540;-68
2023/05/12 02:35:51;;;;;;;21.70;15.30;;;10.50;99.90;;;;;;5006176;28;20903;-67
2023/05/12 02:38:18;;;;;;;22.67;15.10;;;10.40;99.90;;;;;;5006033;28;20529;-67
2023/05/12 02:40:47;;;;;;;30.83;14.90;;;10.40;99.90;;;;;;5006341;28;20442;-68
2023/05/12 02:43:15;;;;;;;19.77;14.70;;;10.40;99.90;;;;;;5005422;28;20443;-67
2023/05/12 02:45:43;;;;;;;18.93;15.30;;;10.40;99.90;;;;;;5006181;28;20465;-68
2023/05/12 02:48:11;;;;;;;19.20;13.93;;;10.40;99.90;;;;;;5006237;28;20471;-67
2023/05/12 02:50:40;;;;;;;27.80;15.77;;;10.50;99.90;;;;;;5005975;28;20938;-68
2023/05/12 02:53:08;;;;;;;18.80;15.03;;;10.40;99.90;;;;;;5004862;28;20457;-68
2023/05/12 02:55:36;;;;;;;21.47;15.17;;;10.40;99.90;;;;;;5005805;28;20480;-67
2023/05/12 02:58:04;;;;;;;16.67;14.13;;;10.40;99.90;;;;;;5006431;28;20922;-68
2023/05/12 03:00:32;;;;;;;24.57;15.87;;;10.40;99.90;;;;;;5006138;28;20444;-68
2023/05/12 03:03:00;;;;;;;16.50;14.80;;;10.40;99.90;;;;;;5005215;28;20808;-67
2023/05/12 03:05:28;;;;;;;19.27;15.37;;;10.40;99.90;;;;;;5006296;28;21003;-68
2023/05/12 03:07:57;;;;;;;36.57;18.53;;;10.40;99.90;;;;;;5005932;28;20929;-68
2023/05/12 03:10:25;;;;;;;17.13;15.03;;;10.40;99.90;;;;;;5006066;28;20537;-68
2023/05/12 03:12:53;;;;;;;17.80;15.90;;;10.40;99.90;;;;;;5004977;28;20500;-68
2023/05/12 03:15:21;;;;;;;15.83;14.23;;;10.50;99.90;;;;;;5005578;28;22006;-68
2023/05/12 03:17:49;;;;;;;16.70;15.00;;;10.40;99.90;;;;;;5006068;28;20455;-68
2023/05/12 03:20:17;;;;;;;15.40;13.73;;;10.50;99.90;;;;;;5008065;28;20439;-68
2023/05/12 03:22:46;;;;;;;15.10;13.60;;;10.40;99.90;;;;;;5008739;28;20902;-68
2023/05/12 03:25:15;;;;;;;14.80;13.30;;;10.50;99.90;;;;;;5009862;28;20537;-68
2023/05/12 03:27:43;;;;;;;18.87;15.77;;;10.60;99.90;;;;;;5009820;28;20454;-68
2023/05/12 03:30:12;;;;;;;19.30;15.80;;;10.70;99.90;;;;;;5009755;28;20548;-67
2023/05/12 03:32:41;;;;;;;19.80;15.27;;;10.70;99.90;;;;;;5008211;28;20450;-68
2023/05/12 03:35:09;;;;;;;23.37;16.60;;;10.60;99.90;;;;;;5009241;28;20488;-68
2023/05/12 03:37:37;;;;;;;19.17;15.90;;;10.60;99.90;;;;;;5010148;28;20891;-68
2023/05/12 03:40:06;;;;;;;18.37;15.47;;;10.50;99.90;;;;;;5009660;28;20457;-68
2023/05/12 03:42:35;;;;;;;19.40;13.10;;;10.60;99.90;;;;;;5008693;28;20465;-68
2023/05/12 03:45:05;;;;;;;15.87;12.27;;;10.70;99.90;;;;;;5009510;28;20474;-67
2023/05/12 03:47:34;;;;;;;18.90;12.77;;;10.80;99.90;;;;;;5009545;28;21057;-67
2023/05/12 03:50:03;;;;;;;13.83;12.53;;;10.80;99.90;;;;;;5009680;28;20511;-68
2023/05/12 03:52:31;;;;;;;15.27;13.13;;;10.70;99.90;;;;;;5008473;28;20491;-68
2023/05/12 03:54:58;;;;;;;15.00;12.67;;;10.70;99.90;;;;;;5009449;28;20565;-68
2023/05/12 03:57:26;;;;;;;13.67;12.27;;;10.60;99.90;;;;;;5008967;28;20434;-68
2023/05/12 03:59:55;;;;;;;14.03;12.13;;;10.80;99.90;;;;;;5009106;28;20460;-67
2023/05/12 04:02:23;;;;;;;14.80;13.20;;;10.90;99.90;;;;;;5008002;28;20456;-68
2023/05/12 04:04:52;;;;;;;16.73;14.70;;;10.80;99.90;;;;;;5008697;28;20548;-68
2023/05/12 04:07:20;;;;;;;14.80;13.27;;;10.80;99.90;;;;;;5008942;28;20433;-68
2023/05/12 04:09:48;;;;;;;15.60;14.00;;;10.70;99.90;;;;;;5007522;28;20473;-68
2023/05/12 04:12:16;;;;;;;18.93;14.47;;;10.70;99.90;;;;;;5008382;28;20956;-68
2023/05/12 04:14:44;;;;;;;15.03;13.30;;;10.80;99.90;;;;;;5007494;28;20446;-68
2023/05/12 04:17:13;;;;;;;15.37;13.87;;;10.90;99.90;;;;;;5008638;28;20972;-67
2023/05/12 04:19:41;;;;;;;17.40;13.93;;;11.00;99.90;;;;;;5008724;28;20439;-68
2023/05/12 04:22:09;;;;;;;16.67;14.93;;;10.90;99.90;;;;;;5007899;28;20443;-67
2023/05/12 04:24:38;;;;;;;16.53;14.03;;;11.00;99.90;;;;;;5007605;28;20444;-67
2023/05/12 04:27:06;;;;;;;19.80;15.47;;;11.10;99.90;;;;;;5008118;28;20554;-67
2023/05/12 04:29:34;;;;;;;19.10;16.00;;;11.00;99.90;;;;;;5008459;28;20485;-68
2023/05/12 04:32:02;;;;;;;19.83;15.53;;;11.00;99.90;;;;;;5007194;28;20447;-67
2023/05/12 04:34:32;;;;;;;17.00;15.07;;;11.00;99.90;;;;;;5006943;28;20930;-68
2023/05/12 04:37:00;;;;;;;16.47;14.60;;;11.10;99.90;;;;;;5008243;28;20525;-68
2023/05/12 04:39:28;;;;;;;16.70;14.90;;;11.30;99.90;;;;;;5007888;28;20469;-71
2023/05/12 04:41:56;;;;;;;17.87;14.87;;;11.30;99.90;;;;;;5008029;28;20444;-71
2023/05/12 04:44:24;;;;;;;16.90;14.80;;;11.30;99.90;;;;;;5006834;28;20451;-68
2023/05/12 04:46:55;;;;;;;13.17;11.77;;;11.40;99.90;;;;;;5007856;28;20466;-69
2023/05/12 04:49:22;;;;;;;13.30;12.00;;;11.40;99.90;;;;;;5008054;28;20455;-68
2023/05/12 04:51:52;;;;;;;13.90;12.40;;;11.40;99.90;;;;;;5007657;28;20945;-68
2023/05/12 04:54:20;;;;;;;13.47;12.03;;;11.20;99.90;;;;;;5006474;28;20572;-67
2023/05/12 04:56:48;;;;;;;14.73;13.23;;;11.10;99.90;;;;;;5006519;28;20973;-68
2023/05/12 04:59:16;;;;;;;13.90;12.50;;;11.10;99.90;;;;;;5007108;28;20435;-67
2023/05/12 05:01:44;;;;;;;13.40;11.90;;;11.10;99.90;;;;;;5007990;28;20497;-68
2023/05/12 05:04:12;;;;;;;14.40;12.90;;;11.20;99.90;;;;;;5006414;28;20477;-67
2023/05/12 05:06:40;;;;;;;14.60;13.17;;;11.20;99.90;;;;;;5008102;28;20501;-68
2023/05/12 05:09:10;;;;;;;13.63;12.23;;;11.10;99.90;;;;;;5007832;28;20437;-68
2023/05/12 05:11:37;;;;;;;13.90;12.47;;;11.10;99.90;;;;;;5007374;28;20478;-68
2023/05/12 05:14:05;;;;;;;15.47;13.63;;;11.00;99.90;;;;;;5006548;28;21248;-67
2023/05/12 05:16:34;;;;;;;14.10;12.80;;;11.10;99.90;;;;;;5007372;28;20499;-68
2023/05/12 05:19:02;;;;;;;14.40;12.60;;;11.10;99.90;;;;;;5007680;28;20975;-68
2023/05/12 05:21:36;;;;;;;14.17;11.70;;;11.10;99.90;;;;;;5007712;28;20446;-69
2023/05/12 05:24:04;;;;;;;12.43;11.17;;;11.10;99.90;;;;;;5005711;28;20949;-68
2023/05/12 05:26:36;;;;;;;13.10;11.80;;;11.30;99.90;;;;;;5006527;28;20463;-68
2023/05/12 05:29:05;;;;;;;11.90;10.77;;;11.30;99.90;;;;;;5007356;28;20460;-68
2023/05/12 05:31:33;;;;;;;11.70;10.60;;;11.30;99.90;;;;;;5007401;28;20478;-68
2023/05/12 05:34:01;;;;;;;12.17;10.97;;;11.40;99.90;;;;;;5006130;28;20819;-68
2023/05/12 05:36:29;;;;;;;12.30;11.10;;;11.40;99.90;;;;;;5007451;28;20458;-67
2023/05/12 05:38:58;;;;;;;13.73;12.27;;;11.40;99.90;;;;;;5007404;28;20446;-68
2023/05/12 05:41:26;;;;;;;12.50;11.23;;;11.40;99.90;;;;;;5007545;28;20559;-67
2023/05/12 05:43:55;;;;;;;13.93;11.20;;;11.40;99.90;;;;;;5005931;28;20540;-68
2023/05/12 05:46:23;;;;;;;12.10;10.90;;;11.40;99.90;;;;;;5006681;28;20454;-68
2023/05/12 05:48:51;;;;;;;13.80;12.40;;;11.50;99.90;;;;;;5007335;28;20449;-68
2023/05/12 05:51:19;;;;;;;12.43;11.23;;;11.40;99.90;;;;;;5006300;28;20488;-68
2023/05/12 05:53:47;;;;;;;12.10;10.90;;;11.50;99.90;;;;;;5005862;28;20454;-68
2023/05/12 05:56:15;;;;;;;11.67;10.57;;;11.70;99.90;;;;;;5006726;28;20473;-68
2023/05/12 05:58:43;;;;;;;11.93;10.83;;;11.80;99.90;;;;;;5006809;28;20904;-68
2023/05/12 06:01:12;;;;;;;11.23;10.00;;;11.80;99.90;;;;;;5006887;28;20440;-68
2023/05/12 06:03:40;;;;;;;10.00;9.10;;;11.90;99.90;;;;;;5005589;28;20442;-68
2023/05/12 06:06:08;;;;;;;11.03;10.03;;;12.10;99.90;;;;;;5006373;28;20494;-68
2023/05/12 06:08:36;;;;;;;11.17;9.93;;;12.10;99.90;;;;;;5006657;28;20449;-69
2023/05/12 06:11:04;;;;;;;12.30;11.30;;;12.10;99.90;;;;;;5006469;28;20484;-68
2023/05/12 06:13:32;;;;;;;11.17;10.17;;;12.20;99.90;;;;;;5005473;28;20540;-68
2023/05/12 06:16:00;;;;;;;14.80;10.10;;;12.50;99.90;;;;;;5006772;28;20472;-67
2023/05/12 06:18:29;;;;;;;11.50;10.50;;;12.60;99.90;;;;;;5006623;28;20853;-68
2023/05/12 06:20:57;;;;;;;10.90;10.00;;;12.70;99.90;;;;;;5006628;28;20441;-68
2023/05/12 06:23:25;;;;;;;11.37;10.37;;;12.70;99.90;;;;;;5005198;28;20444;-68
2023/05/12 06:25:53;;;;;;;12.20;11.03;;;12.60;99.90;;;;;;5006159;28;21184;-68
2023/05/12 06:28:21;;;;;;;11.30;10.10;;;12.70;99.90;;;;;;5006351;28;20826;-68
2023/05/12 06:30:49;;;;;;;12.83;11.63;;;12.80;99.90;;;;;;5006545;28;20536;-69
2023/05/12 06:33:17;;;;;;;11.33;10.33;;;12.80;99.90;;;;;;5005367;28;20446;-68
2023/05/12 06:35:46;;;;;;;12.47;11.37;;;13.10;99.90;;;;;;5006329;28;21022;-67
2023/05/12 06:38:14;;;;;;;12.70;11.60;;;13.20;99.90;;;;;;5006306;28;20984;-68
2023/05/12 06:40:41;;;;;;;11.43;10.33;;;13.40;99.90;;;;;;5006568;28;20438;-67
2023/05/12 06:43:09;;;;;;;11.03;10.13;;;13.50;99.90;;;;;;5005051;28;20453;-68
2023/05/12 06:45:37;;;;;;;12.50;10.57;;;13.70;99.90;;;;;;5006128;28;20481;-68
2023/05/12 06:48:06;;;;;;;11.27;10.27;;;13.70;99.90;;;;;;5006085;28;20535;-68
2023/05/12 06:50:34;;;;;;;11.77;10.67;;;13.80;99.90;;;;;;5006072;28;20492;-68
2023/05/12 06:53:04;;;;;;;12.40;11.10;;;13.90;99.90;;;;;;5005077;28;20449;-68
2023/05/12 06:55:33;;;;;;;11.90;10.90;;;13.90;99.60;;;;;;5009513;28;20461;-67
2023/05/12 06:58:00;;;;;;;11.43;10.43;;;13.90;99.90;;;;;;5010624;28;20442;-67
2023/05/12 07:00:28;;;;;;;12.43;11.37;;;13.80;99.50;;;;;;5010435;28;20501;-68
2023/05/12 07:02:56;;;;;;;12.83;11.63;;;13.70;99.50;;;;;;5008499;28;20434;-67
2023/05/12 07:05:24;;;;;;;13.47;12.10;;;13.70;99.90;;;;;;5009676;28;20476;-67
2023/05/12 07:07:52;;;;;;;11.60;10.60;;;13.70;99.90;;;;;;5010225;28;20989;-68
2023/05/12 07:10:21;;;;;;;11.63;10.63;;;13.90;99.90;;;;;;5010110;28;20447;-68
2023/05/12 07:12:49;;;;;;;13.47;11.70;;;14.10;99.60;;;;;;5008793;28;21014;-68
2023/05/12 07:15:17;;;;;;;12.97;11.77;;;14.20;98.80;;;;;;5010228;28;20475;-68
2023/05/12 07:17:46;;;;;;;13.83;12.63;;;14.40;99.30;;;;;;5010334;28;20863;-68
2023/05/12 07:20:14;;;;;;;10.30;9.30;;;14.60;99.90;;;;;;5009342;28;20448;-68
2023/05/12 07:22:42;;;;;;;9.50;8.53;;;14.80;99.10;;;;;;5008934;28;20433;-68
2023/05/12 07:25:10;;;;;;;7.23;6.50;;;15.00;97.50;;;;;;5010033;28;20875;-67
2023/05/12 07:27:39;;;;;;;11.23;10.23;;;15.50;94.20;;;;;;5009843;28;20527;-68
2023/05/12 07:30:09;;;;;;;10.37;9.37;;;15.60;92.60;;;;;;5010065;28;20488;-68
2023/05/12 07:32:37;;;;;;;9.37;8.50;;;15.70;94.90;;;;;;5009556;28;20490;-68
2023/05/12 07:35:06;;;;;;;9.63;8.77;;;15.90;93.30;;;;;;5011544;28;20470;-68
2023/05/12 07:37:34;;;;;;;8.07;7.33;;;16.30;92.70;;;;;;5011871;28;20442;-68
2023/05/12 07:40:03;;;;;;;7.20;6.60;;;16.20;89.10;;;;;;5012430;28;20434;-68
2023/05/12 07:42:31;;;;;;;9.33;8.53;;;15.90;91.40;;;;;;5010839;28;20462;-68
2023/05/12 07:45:00;;;;;;;8.93;8.13;;;15.90;93.80;;;;;;5011289;28;20548;-68
2023/05/12 07:47:28;;;;;;;9.87;9.07;;;15.90;91.40;;;;;;5009899;28;21031;-67
2023/05/12 07:49:56;;;;;;;10.00;9.20;;;15.70;93.10;;;;;;5010953;28;20541;-67
2023/05/12 07:52:24;;;;;;;10.00;9.13;;;15.60;92.30;;;;;;5010810;28;20878;-68
2023/05/12 07:54:52;;;;;;;9.33;8.53;;;15.50;92.40;;;;;;5011078;28;20529;-68
2023/05/12 07:57:20;;;;;;;8.30;7.60;;;15.50;92.70;;;;;;5009613;28;20540;-67
2023/05/12 07:59:49;;;;;;;8.37;7.77;;;15.50;92.80;;;;;;5009467;28;20473;-68
2023/05/12 08:02:19;;;;;;;7.72;7.13;;;15.50;91.70;;;;;;5008026;28;20741;-67
2023/05/12 08:04:47;;;;;;;8.70;7.63;;;15.70;93.20;;;;;;5008806;28;20328;-68
2023/05/12 08:07:15;;;;;;;6.60;6.10;;;16.00;94.30;;;;;;5009037;28;20442;-67
2023/05/12 08:09:43;;;;;;;6.80;6.23;;;16.70;92.40;;;;;;5009344;28;20444;-67
2023/05/12 08:12:11;;;;;;;5.80;5.40;;;17.20;86.90;;;;;;5008633;28;20469;-68
2023/05/12 08:14:39;;;;;;;6.67;6.17;;;17.60;83.80;;;;;;5008030;28;20566;-68
2023/05/12 08:17:07;;;;;;;5.70;5.30;;;18.10;83.50;;;;;;5009138;28;20450;-68
2023/05/12 08:19:36;;;;;;;5.10;4.77;;;18.60;79.80;;;;;;5008594;28;21002;-68
2023/05/12 08:22:04;;;;;;;5.67;5.20;;;18.90;80.70;;;;;;5008359;28;20438;-68
2023/05/12 08:24:32;;;;;;;6.00;5.50;;;19.00;75.40;;;;;;5007626;28;20562;-68
2023/05/12 08:27:00;;;;;;;6.00;5.47;;;18.60;73.60;;;;;;5009138;28;20934;-68
2023/05/12 08:29:28;;;;;;;5.80;5.40;;;18.30;72.60;;;;;;5008740;28;20449;-67
2023/05/12 08:31:57;;;;;;;5.27;4.87;;;17.50;74.10;;;;;;5008351;28;20510;-68
2023/05/12 08:34:26;;;;;;;6.20;5.70;;;17.00;77.40;;;;;;5007336;28;20445;-68
2023/05/12 08:36:56;;;;;;;6.50;6.00;;;16.90;78.40;;;;;;5008563;28;21122;-68
2023/05/12 08:39:24;;;;;;;7.93;6.63;;;16.80;79.40;;;;;;5008335;28;21074;-69
2023/05/12 08:41:56;;;;;;;6.13;5.53;;;16.80;81.20;;;;;;5008518;28;20469;-69
2023/05/12 08:44:26;;;;;;;7.00;6.37;;;17.00;81.20;;;;;;5007118;28;20445;-68
2023/05/12 08:46:56;;;;;;;5.87;5.47;;;17.50;79.80;;;;;;5008412;28;20445;-69
2023/05/12 08:49:29;;;;;;;7.53;5.90;;;17.70;83.00;;;;;;5008029;28;20536;-69
2023/05/12 08:52:01;;;;;;;6.53;5.70;;;18.00;80.50;;;;;;5008166;28;20886;-69
2023/05/12 08:54:29;;;;;;;5.97;5.47;;;18.10;79.90;;;;;;5006933;28;20540;-69
2023/05/12 08:56:58;;;;;;;7.43;6.70;;;18.10;78.60;;;;;;5008138;28;20574;-68
2023/05/12 08:59:29;;;;;;;5.63;5.23;;;17.60;75.90;;;;;;4966121;28;20452;-68
2023/05/12 09:01:58;;;;;;;6.10;5.60;;;17.30;77.50;;;;;;4966169;28;20588;-69
2023/05/12 09:04:26;;;;;;;5.20;4.80;;;17.40;83.20;;;;;;4965013;28;20454;-69
2023/05/12 09:06:57;;;;;;;5.77;5.23;;;17.60;77.80;;;;;;4965955;28;20532;-69
2023/05/12 09:09:29;;;;;;;4.93;4.53;;;17.50;79.70;;;;;;4965953;28;20514;-68
2023/05/12 09:11:57;;;;;;;3.63;3.43;;;17.10;76.70;;;;;;4965680;28;20467;-69
2023/05/12 09:14:26;;;;;;;3.97;3.57;;;16.90;79.00;;;;;;4964474;28;20530;-68
2023/05/12 09:17:01;;;;;;;3.70;3.40;;;16.80;84.30;;;;;;4971949;28;20438;-68
2023/05/12 09:19:30;;;;;;;4.43;4.10;;;16.90;82.50;;;;;;5007820;28;20449;-68
2023/05/12 09:21:59;;;;;;;4.57;4.27;;;16.60;82.80;;;;;;5007560;28;20445;-68
2023/05/12 09:24:38;;;;;;;5.60;5.10;;;16.20;83.20;;;;;;5006550;28;20461;-68
2023/05/12 09:27:07;;;;;;;5.37;4.97;;;16.10;89.80;;;;;;5007377;28;20451;-67
2023/05/12 09:29:35;;;;;;;5.17;4.67;;;16.00;85.20;;;;;;5007736;28;20459;-68
2023/05/12 09:32:18;;;;;;;4.33;4.00;;;15.80;83.70;;;;;;5006875;28;20480;-68
2023/05/12 09:34:51;;;;;;;4.83;4.43;;;15.60;84.60;;;;;;5006711;28;21847;-69
2023/05/12 09:37:19;;;;;;;4.43;4.03;;;15.80;84.80;;;;;;5007275;28;20434;-68
2023/05/12 09:39:59;;;;;;;4.93;4.37;;;16.20;82.40;;;;;;5007432;28;20451;-68
2023/05/12 09:42:29;;;;;;;6.37;5.77;;;16.80;80.70;;;;;;5006414;28;20489;-68
2023/05/12 09:45:02;;;;;;;5.60;5.20;;;17.20;80.00;;;;;;5007419;28;20473;-68
2023/05/12 09:47:35;;;;;;;5.37;4.87;;;17.10;81.10;;;;;;5007176;28;21132;-68
2023/05/12 09:50:05;;;;;;;4.47;4.07;;;16.90;80.60;;;;;;5007032;28;20447;-68
2023/05/12 09:52:37;;;;;;;4.53;4.10;;;16.80;80.40;;;;;;5005947;28;20483;-69
2023/05/12 09:55:09;;;;;;;4.73;4.33;;;17.10;82.00;;;;;;5007260;28;20457;-68
2023/05/12 09:57:41;;;;;;;5.40;4.90;;;17.70;81.30;;;;;;5007161;28;20434;-68
2023/05/12 10:00:12;;;;;;;4.20;3.90;;;17.80;74.30;;;;;;5007084;28;20971;-68
2023/05/12 10:03:00;;;;;;;4.73;4.40;;;17.30;75.90;;;;;;5006223;28;20866;-68
2023/05/12 10:05:29;;;;;;;4.33;4.03;;;16.90;78.90;;;;;;5007152;28;20452;-68
2023/05/12 10:08:00;;;;;;;4.93;4.53;;;16.70;84.40;;;;;;5007303;28;20935;-68
2023/05/12 10:10:30;;;;;;;4.90;4.40;;;16.50;83.20;;;;;;5008750;28;20439;-68
2023/05/12 10:12:58;;;;;;;4.47;4.07;;;16.10;82.60;;;;;;5005671;28;20469;-68
2023/05/12 10:15:27;;;;;;;6.00;5.50;;;15.80;85.20;;;;;;5007149;28;20879;-69
2023/05/12 10:17:56;;;;;;;5.87;5.37;;;15.30;88.90;;;;;;5007311;28;20449;-68
2023/05/12 10:20:25;;;;;;;6.40;5.80;;;15.00;94.30;;;;;;5006751;28;20449;-69
2023/05/12 10:22:54;;;;;;;9.60;5.93;;;14.60;95.30;;;;;;5005704;28;20450;-68
2023/05/12 10:25:22;;;;;;;7.00;6.30;;;14.20;98.00;;;;;;5006560;28;20468;-68
2023/05/12 10:27:53;;;;;;;5.90;5.40;;;13.90;99.90;;;;;;5006283;28;20875;-69
2023/05/12 10:30:22;;;;;;;6.70;6.10;;;13.70;99.90;;;;;;5006172;28;20535;-69
2023/05/12 10:32:50;;;;;;;5.57;5.07;;;13.60;99.90;;;;;;5005133;28;20503;-68
2023/05/12 10:35:18;;;;;;;6.30;5.80;;;13.80;99.90;;;;;;5006519;28;20484;-69
2023/05/12 10:37:47;;;;;;;5.40;4.90;;;13.90;99.90;;;;;;5006946;28;20436;-67
2023/05/12 10:40:23;;;;;;;6.13;5.53;;;14.20;99.90;;;;;;5006307;28;20452;-67
2023/05/12 10:42:52;;;;;;;7.50;6.80;;;14.40;99.90;;;;;;5005768;28;20425;-67
2023/05/12 10:45:20;;;;;;;7.63;5.80;;;14.70;97.70;;;;;;5005604;28;20451;-68
2023/05/12 10:47:49;;;;;;;5.33;4.70;;;14.90;99.30;;;;;;5005837;28;20473;-68
2023/05/12 10:50:26;;;;;;;5.27;4.87;;;15.10;96.60;;;;;;5006708;28;20516;-68
2023/05/12 10:52:56;;;;;;;4.50;4.20;;;15.10;97.00;;;;;;5005419;28;20477;-68
2023/05/12 10:55:32;;;;;;;3.67;3.23;;;15.40;97.60;;;;;;5006547;28;20474;-68
2023/05/12 10:58:10;;;;;;;3.10;2.00;;;15.80;94.90;;;;;;5007187;28;20476;-67
2023/05/12 11:00:46;;;;;;;2.53;2.33;;;15.70;90.20;;;;;;5006700;28;20439;-67
2023/05/12 11:03:17;;;;;;;2.90;2.67;;;15.80;93.00;;;;;;5005714;28;20440;-67
2023/05/12 11:05:58;;;;;;;2.80;2.60;;;16.20;93.60;;;;;;5007176;28;20456;-68
2023/05/12 11:08:26;;;;;;;3.13;2.93;;;16.10;91.60;;;;;;5006657;28;20463;-67
2023/05/12 11:10:55;;;;;;;3.50;3.20;;;15.90;91.60;;;;;;5006584;28;20459;-68
2023/05/12 11:13:24;;;;;;;4.37;3.43;;;16.10;93.60;;;;;;5004705;28;20488;-67
2023/05/12 11:15:53;;;;;;;3.30;3.10;;;16.40;93.30;;;;;;5005663;28;20472;-68
2023/05/12 11:18:21;;;;;;;3.30;3.00;;;16.70;91.40;;;;;;5006557;28;20437;-68
2023/05/12 11:20:50;;;;;;;3.37;3.10;;;16.90;92.10;;;;;;5006527;28;20446;-68
2023/05/12 11:23:26;;;;;;;3.53;3.33;;;17.10;91.30;;;;;;5004986;28;21117;-68
2023/05/12 11:25:54;;;;;;;5.30;4.17;;;17.30;90.50;;;;;;5005762;28;20449;-67
2023/05/12 11:28:23;;;;;;;6.87;4.90;;;17.50;87.90;;;;;;5006244;28;20469;-67
2023/05/12 11:30:52;;;;;;;5.43;4.60;;;17.20;90.40;;;;;;5005309;28;20481;-68
2023/05/12 11:33:23;;;;;;;5.47;5.00;;;17.00;89.40;;;;;;5004678;28;20564;-68
2023/05/12 11:35:51;;;;;;;5.30;4.80;;;17.00;91.00;;;;;;5005643;28;20468;-68
2023/05/12 11:38:23;;;;;;;4.07;3.77;;;16.80;87.70;;;;;;5005669;28;20443;-68
2023/05/12 11:40:51;;;;;;;4.90;4.27;;;16.40;88.00;;;;;;5006967;28;20466;-68
2023/05/12 11:43:21;;;;;;;4.20;3.90;;;16.20;89.70;;;;;;5008175;28;20436;-68
2023/05/12 11:45:50;;;;;;;3.43;3.13;;;16.20;88.40;;;;;;5009868;28;20449;-68
2023/05/12 11:48:20;;;;;;;5.87;4.30;;;16.00;88.30;;;;;;5008801;28;20472;-68
2023/05/12 11:50:50;;;;;;;3.93;3.63;;;16.10;90.20;;;;;;5008983;28;20444;-68
2023/05/12 11:53:19;;;;;;;2.80;2.50;;;16.40;90.80;;;;;;5008169;28;20433;-68
2023/05/12 11:55:49;;;;;;;3.87;3.57;;;16.70;81.50;;;;;;5005476;28;20513;-68
2023/05/12 11:58:24;;;;;;;4.43;4.13;;;16.70;84.00;;;;;;5007981;28;20433;-68
2023/05/12 12:00:55;;;;;;;4.77;3.90;;;16.90;83.20;;;;;;5006041;28;20819;-67
2023/05/12 12:03:24;;;;;;;4.27;3.97;;;17.10;82.10;;;;;;5007699;28;20454;-68
2023/05/12 12:06:00;;;;;;;4.43;4.00;;;17.40;80.20;;;;;;5008593;28;20982;-68
2023/05/12 12:08:28;;;;;;;3.90;3.60;;;17.70;78.80;;;;;;5006298;28;20450;-67
2023/05/12 12:10:56;;;;;;;4.50;3.00;;;17.80;83.70;;;;;;5008818;28;20472;-68
2023/05/12 12:13:25;;;;;;;3.67;3.37;;;18.40;83.90;;;;;;5007710;28;20442;-67
2023/05/12 12:15:54;;;;;;;3.10;2.90;;;18.80;79.10;;;;;;5009226;28;20465;-68
2023/05/12 12:18:22;;;;;;;3.80;3.50;;;18.90;73.90;;;;;;5009072;28;20477;-67
2023/05/12 12:20:50;;;;;;;3.93;3.67;;;18.90;84.80;;;;;;5009308;28;20437;-68
2023/05/12 12:23:18;;;;;;;6.00;3.43;;;19.10;76.60;;;;;;5007732;28;20465;-67
2023/05/12 12:25:46;;;;;;;3.70;3.37;;;19.10;76.00;;;;;;5006653;28;20560;-68
2023/05/12 12:28:14;;;;;;;3.80;3.50;;;19.00;72.30;;;;;;5008870;28;20450;-67
2023/05/12 12:30:42;;;;;;;3.67;3.47;;;18.80;72.70;;;;;;5008475;28;20507;-68
2023/05/12 12:33:12;;;;;;;5.20;3.27;;;18.70;72.50;;;;;;5007749;28;20465;-68
2023/05/12 12:35:40;;;;;;;5.30;4.00;;;18.70;77.40;;;;;;5008077;28;20520;-68
2023/05/12 12:38:08;;;;;;;5.10;4.70;;;18.40;74.20;;;;;;5008521;28;20461;-68
2023/05/12 12:40:38;;;;;;;5.57;5.07;;;17.90;76.10;;;;;;5008725;28;20438;-69
2023/05/12 12:43:06;;;;;;;5.40;4.90;;;17.10;79.50;;;;;;5006367;28;20437;-68
2023/05/12 12:45:34;;;;;;;6.60;6.07;;;16.70;82.40;;;;;;5008158;28;20984;-68